Time;durP1;ratioP1;P1;durP2;ratioP2;P2;SDS_P1;SDS_P2;PMS_P1;PMS_P2;Temp;Humidity;BMP_temperature;BMP_pressure;BME280_temperature;BME280_humidity;BME280_pressure;Samples;Min_cycle;Max_cycle;Signal;HPM_P1;HPM_P2
2021/05/12 00:01:19;;;;;;;7.68;6.88;;;12.20;99.90;;;;;;5059915;28;20448;-71
2021/05/12 00:03:45;;;;;;;8.07;7.25;;;12.20;99.90;;;;;;5061758;28;20564;-71
2021/05/12 00:06:11;;;;;;;8.45;7.57;;;12.10;99.90;;;;;;5059926;28;20431;-71
2021/05/12 00:08:36;;;;;;;10.88;8.60;;;12.20;99.90;;;;;;5061475;28;20070;-71
2021/05/12 00:11:02;;;;;;;8.70;7.80;;;12.10;99.90;;;;;;5060288;28;20463;-71
2021/05/12 00:13:27;;;;;;;10.02;8.40;;;12.10;99.90;;;;;;5058218;28;20020;-71
2021/05/12 00:15:53;;;;;;;8.60;7.72;;;12.10;99.90;;;;;;5061853;28;20029;-71
2021/05/12 00:18:21;;;;;;;11.10;7.47;;;12.10;99.90;;;;;;5081956;23;20052;-73
2021/05/12 00:20:47;;;;;;;7.68;6.97;;;12.10;99.90;;;;;;5071291;28;20092;-73
2021/05/12 00:23:28;;;;;;;9.95;7.82;;;12.10;99.90;;;;;;5070695;28;20458;-73
2021/05/12 00:25:53;;;;;;;7.85;7.05;;;12.20;99.90;;;;;;5069987;28;20021;-73
2021/05/12 00:28:19;;;;;;;8.60;7.70;;;12.10;99.90;;;;;;5069493;28;20034;-73
2021/05/12 00:30:45;;;;;;;8.40;7.60;;;12.00;99.90;;;;;;5071233;28;20056;-73
2021/05/12 00:33:12;;;;;;;8.52;7.63;;;12.00;99.90;;;;;;5075240;28;20032;-74
2021/05/12 00:35:37;;;;;;;8.75;7.90;;;12.00;99.90;;;;;;5075566;28;20082;-72
2021/05/12 00:38:03;;;;;;;9.63;8.63;;;12.00;99.90;;;;;;5075523;28;20111;-73
2021/05/12 00:40:28;;;;;;;9.35;7.97;;;12.00;99.90;;;;;;5074030;28;20035;-73
2021/05/12 00:42:54;;;;;;;9.60;8.60;;;12.00;99.90;;;;;;5074112;28;20021;-73
2021/05/12 00:45:21;;;;;;;9.60;8.60;;;12.00;99.90;;;;;;5075714;28;20130;-73
2021/05/12 00:47:48;;;;;;;9.55;8.57;;;12.10;99.90;;;;;;5074769;28;20391;-74
2021/05/12 00:50:15;;;;;;;11.43;9.20;;;12.10;99.90;;;;;;5075173;28;20013;-74
2021/05/12 00:52:41;;;;;;;7.72;6.93;;;12.10;99.90;;;;;;5075220;28;20031;-74
2021/05/12 00:55:07;;;;;;;10.20;8.63;;;12.10;99.90;;;;;;5073693;28;20016;-73
2021/05/12 00:57:34;;;;;;;11.88;9.18;;;12.20;99.90;;;;;;5075641;28;20096;-74
2021/05/12 01:00:00;;;;;;;12.85;8.90;;;12.20;99.90;;;;;;5075717;28;20048;-73
2021/05/12 01:02:25;;;;;;;11.63;8.35;;;12.10;99.90;;;;;;5074828;28;20467;-73
2021/05/12 01:04:51;;;;;;;11.98;9.43;;;12.20;99.90;;;;;;5073573;28;20027;-73
2021/05/12 01:07:17;;;;;;;11.13;9.40;;;12.10;99.90;;;;;;5075076;28;20417;-73
2021/05/12 01:09:43;;;;;;;13.90;10.48;;;12.10;99.90;;;;;;5074758;28;20033;-73
2021/05/12 01:12:09;;;;;;;15.65;11.05;;;12.10;99.90;;;;;;5073651;28;20070;-73
2021/05/12 01:14:35;;;;;;;10.40;9.38;;;12.10;99.90;;;;;;5075092;28;20078;-72
2021/05/12 01:17:00;;;;;;;13.20;10.38;;;12.20;99.90;;;;;;5070680;28;20085;-73
2021/05/12 01:19:27;;;;;;;10.80;9.57;;;12.30;99.90;;;;;;5068445;28;20025;-73
2021/05/12 01:21:53;;;;;;;12.52;10.40;;;12.40;99.90;;;;;;5074479;28;20052;-73
2021/05/12 01:24:19;;;;;;;12.90;10.95;;;12.30;99.90;;;;;;5074686;28;20045;-72
2021/05/12 01:26:45;;;;;;;16.58;12.30;;;12.40;99.90;;;;;;5074441;28;20020;-72
2021/05/12 01:29:10;;;;;;;15.95;12.18;;;12.40;99.90;;;;;;5074611;28;20383;-73
2021/05/12 01:31:41;;;;;;;17.45;12.55;;;12.40;99.90;;;;;;5090411;28;20086;-72
2021/05/12 01:34:12;;;;;;;14.55;11.75;;;12.40;99.90;;;;;;5073554;28;20056;-71
2021/05/12 01:36:38;;;;;;;20.20;14.05;;;12.30;99.90;;;;;;5074438;28;20099;-72
2021/05/12 01:39:05;;;;;;;15.02;11.25;;;12.30;99.90;;;;;;5074171;28;20060;-73
2021/05/12 01:41:32;;;;;;;25.17;14.63;;;12.40;99.90;;;;;;5072888;28;20021;-72
2021/05/12 01:43:58;;;;;;;17.15;12.88;;;12.30;99.90;;;;;;5074317;28;20082;-72
2021/05/12 01:46:24;;;;;;;13.07;10.90;;;12.40;99.90;;;;;;5074284;28;20039;-72
2021/05/12 01:48:50;;;;;;;18.65;12.98;;;12.40;99.90;;;;;;5074133;28;20020;-72
2021/05/12 01:51:17;;;;;;;16.60;12.40;;;12.30;99.90;;;;;;5073951;28;20030;-73
2021/05/12 01:53:43;;;;;;;22.63;14.18;;;12.20;99.90;;;;;;5074115;28;20021;-73
2021/05/12 01:56:11;;;;;;;19.60;13.18;;;12.20;99.90;;;;;;5074120;28;20507;-73
2021/05/12 01:58:37;;;;;;;20.77;13.98;;;12.20;99.90;;;;;;5073600;28;20051;-73
2021/05/12 02:01:03;;;;;;;12.50;10.85;;;12.20;99.90;;;;;;5073780;28;20017;-73
2021/05/12 02:03:29;;;;;;;18.48;12.63;;;12.20;99.90;;;;;;5073918;28;20059;-72
2021/05/12 02:05:55;;;;;;;25.08;14.38;;;12.20;99.90;;;;;;5073947;28;20052;-72
2021/05/12 02:08:23;;;;;;;22.10;14.07;;;12.10;99.90;;;;;;5073958;28;20020;-73
2021/05/12 02:10:51;;;;;;;21.63;14.25;;;12.20;99.90;;;;;;5053851;28;20017;-72
2021/05/12 02:13:17;;;;;;;18.63;13.20;;;12.00;99.90;;;;;;5067423;28;20107;-74
2021/05/12 02:15:44;;;;;;;20.10;13.57;;;12.10;99.90;;;;;;5073831;28;20063;-74
2021/05/12 02:18:10;;;;;;;21.65;14.00;;;12.20;99.90;;;;;;5073592;28;20038;-73
2021/05/12 02:20:37;;;;;;;17.90;12.15;;;12.30;99.90;;;;;;5072206;28;20077;-74
2021/05/12 02:23:05;;;;;;;15.63;12.48;;;12.20;99.90;;;;;;5073471;28;20035;-73
2021/05/12 02:25:32;;;;;;;21.67;12.85;;;12.10;99.90;;;;;;5073662;28;20013;-73
2021/05/12 02:27:57;;;;;;;21.38;13.50;;;12.00;99.90;;;;;;5073549;28;20024;-73
2021/05/12 02:30:23;;;;;;;20.02;13.77;;;12.00;99.90;;;;;;5073467;28;20020;-74
2021/05/12 02:32:49;;;;;;;20.17;13.40;;;12.00;99.90;;;;;;5072169;28;20029;-73
2021/05/12 02:35:16;;;;;;;16.67;13.63;;;12.00;99.90;;;;;;5073463;28;20479;-73
2021/05/12 02:37:41;;;;;;;23.83;15.63;;;11.90;99.90;;;;;;5073254;28;20526;-73
2021/05/12 02:40:10;;;;;;;19.77;12.23;;;11.90;99.90;;;;;;5071918;28;20065;-73
2021/05/12 02:42:36;;;;;;;22.63;14.93;;;11.90;99.90;;;;;;5073180;28;20098;-74
2021/05/12 02:45:02;;;;;;;20.33;14.82;;;11.90;99.90;;;;;;5073228;28;20416;-74
2021/05/12 02:47:28;;;;;;;18.30;14.43;;;11.90;99.90;;;;;;5073053;28;20047;-73
2021/05/12 02:49:54;;;;;;;18.95;14.32;;;11.90;99.90;;;;;;5072920;28;20476;-74
2021/05/12 02:52:19;;;;;;;19.65;14.45;;;12.00;99.90;;;;;;5073058;28;20028;-73
2021/05/12 02:54:45;;;;;;;26.40;16.80;;;12.00;99.90;;;;;;5072589;28;20029;-74
2021/05/12 02:57:11;;;;;;;21.90;15.45;;;12.00;99.90;;;;;;5072855;28;20475;-74
2021/05/12 02:59:37;;;;;;;20.52;15.35;;;12.00;99.90;;;;;;5072734;28;20112;-73
2021/05/12 03:02:02;;;;;;;22.83;16.10;;;11.90;99.90;;;;;;5072941;28;20057;-74
2021/05/12 03:04:28;;;;;;;21.33;15.85;;;12.10;99.90;;;;;;5073016;28;20454;-73
2021/05/12 03:06:56;;;;;;;24.65;16.90;;;12.00;99.90;;;;;;5072714;28;20392;-74
2021/05/12 03:09:22;;;;;;;21.88;15.30;;;12.00;99.90;;;;;;5072690;28;20108;-74
2021/05/12 03:11:47;;;;;;;20.80;15.88;;;12.00;99.90;;;;;;5072711;28;20029;-74
2021/05/12 03:14:13;;;;;;;18.98;13.98;;;12.00;99.90;;;;;;5072677;28;20089;-74
2021/05/12 03:16:38;;;;;;;23.08;16.38;;;12.00;99.90;;;;;;5072393;28;20044;-73
2021/05/12 03:19:04;;;;;;;22.95;16.23;;;12.00;99.90;;;;;;5072272;28;20037;-74
2021/05/12 03:21:32;;;;;;;24.88;17.65;;;11.90;99.90;;;;;;5071072;28;20372;-73
2021/05/12 03:23:59;;;;;;;21.02;15.82;;;12.00;99.90;;;;;;5072481;28;20017;-74
2021/05/12 03:26:24;;;;;;;22.00;16.70;;;12.00;99.90;;;;;;5072314;28;20487;-73
2021/05/12 03:28:50;;;;;;;26.85;18.10;;;12.10;99.90;;;;;;5072237;28;20028;-72
2021/05/12 03:31:16;;;;;;;24.25;17.13;;;12.00;99.90;;;;;;5071992;28;20503;-73
2021/05/12 03:33:42;;;;;;;25.10;17.67;;;11.90;99.90;;;;;;5072280;28;20104;-73
2021/05/12 03:36:08;;;;;;;22.60;17.80;;;12.10;99.90;;;;;;5072205;28;20395;-73
2021/05/12 03:38:34;;;;;;;24.95;17.98;;;12.00;99.90;;;;;;5072099;28;20025;-75
2021/05/12 03:41:01;;;;;;;25.83;18.45;;;11.90;99.90;;;;;;5070655;28;20020;-75
2021/05/12 03:43:26;;;;;;;29.80;19.00;;;12.00;99.90;;;;;;5072125;28;20056;-75
2021/05/12 03:45:52;;;;;;;27.02;18.00;;;12.00;99.90;;;;;;5072172;28;20077;-75
2021/05/12 03:48:18;;;;;;;26.13;18.10;;;11.90;99.90;;;;;;5071976;28;20028;-73
2021/05/12 03:50:44;;;;;;;29.35;19.75;;;11.90;99.90;;;;;;5072278;28;20098;-73
2021/05/12 03:53:10;;;;;;;24.77;18.63;;;11.90;99.90;;;;;;5072297;28;20028;-73
2021/05/12 03:55:38;;;;;;;22.67;17.27;;;11.90;99.90;;;;;;5072026;28;20031;-73
2021/05/12 03:58:03;;;;;;;26.45;18.33;;;11.90;99.90;;;;;;5072143;28;20032;-73
2021/05/12 04:00:29;;;;;;;26.52;18.85;;;11.90;99.90;;;;;;5071629;28;20422;-73
2021/05/12 04:02:55;;;;;;;25.70;17.60;;;12.00;99.90;;;;;;5071876;28;20020;-73
2021/05/12 04:05:21;;;;;;;26.83;19.30;;;12.00;99.90;;;;;;5071168;28;20028;-72
2021/05/12 04:07:47;;;;;;;21.98;17.48;;;12.00;99.90;;;;;;5070059;28;20052;-72
2021/05/12 04:10:13;;;;;;;26.33;18.30;;;12.00;99.90;;;;;;5071547;28;20107;-73
2021/05/12 04:12:39;;;;;;;26.60;18.45;;;11.90;99.90;;;;;;5070571;28;20510;-73
2021/05/12 04:15:06;;;;;;;27.15;19.27;;;11.90;99.90;;;;;;5071712;28;20049;-72
2021/05/12 04:17:32;;;;;;;22.75;16.83;;;12.00;99.90;;;;;;5071578;28;20108;-71
2021/05/12 04:19:57;;;;;;;21.73;17.20;;;12.10;99.90;;;;;;5071396;28;20064;-73
2021/05/12 04:22:23;;;;;;;26.60;18.35;;;12.00;99.90;;;;;;5071648;28;20036;-72
2021/05/12 04:24:49;;;;;;;25.48;18.30;;;12.00;99.90;;;;;;5070420;28;20024;-72
2021/05/12 04:27:14;;;;;;;26.88;17.75;;;12.00;99.90;;;;;;5071591;28;20020;-72
2021/05/12 04:29:40;;;;;;;28.13;18.33;;;12.00;99.90;;;;;;5071457;28;20024;-72
2021/05/12 04:32:06;;;;;;;30.67;19.80;;;12.00;99.90;;;;;;5071727;28;20025;-72
2021/05/12 04:34:32;;;;;;;26.08;19.45;;;12.10;99.90;;;;;;5071734;28;20432;-72
2021/05/12 04:36:58;;;;;;;29.20;20.52;;;12.00;99.90;;;;;;5070289;28;20120;-72
2021/05/12 04:39:23;;;;;;;33.90;22.40;;;11.90;99.90;;;;;;5071484;28;20487;-73
2021/05/12 04:41:49;;;;;;;32.20;21.35;;;12.00;99.90;;;;;;5071519;28;20059;-73
2021/05/12 04:44:15;;;;;;;32.05;22.77;;;11.90;99.90;;;;;;5071285;28;20368;-73
2021/05/12 04:46:43;;;;;;;34.00;23.33;;;11.90;99.90;;;;;;5070048;28;20468;-72
2021/05/12 04:49:09;;;;;;;33.60;22.98;;;11.80;99.90;;;;;;5069782;28;20044;-73
2021/05/12 04:51:35;;;;;;;33.08;22.55;;;12.00;99.90;;;;;;5071491;28;20059;-72
2021/05/12 04:54:05;;;;;;;37.42;23.92;;;12.00;99.90;;;;;;5071303;28;20077;-72
2021/05/12 04:56:32;;;;;;;36.55;24.83;;;12.10;99.90;;;;;;5069931;28;20024;-72
2021/05/12 04:58:57;;;;;;;40.90;25.70;;;12.00;99.90;;;;;;5071302;28;20028;-72
2021/05/12 05:01:23;;;;;;;37.60;24.20;;;12.00;99.90;;;;;;5071431;28;20028;-72
2021/05/12 05:03:49;;;;;;;43.13;25.30;;;12.10;99.90;;;;;;5071570;28;20020;-72
2021/05/12 05:06:15;;;;;;;41.65;26.63;;;12.00;99.90;;;;;;5071672;28;20016;-72
2021/05/12 05:08:40;;;;;;;38.63;23.75;;;12.10;99.90;;;;;;5071781;28;20095;-72
2021/05/12 05:11:06;;;;;;;34.63;23.60;;;12.10;99.90;;;;;;5071357;28;20036;-73
2021/05/12 05:13:32;;;;;;;37.65;24.40;;;12.10;99.90;;;;;;5070347;28;20644;-72
2021/05/12 05:15:57;;;;;;;40.50;26.33;;;12.10;99.90;;;;;;5071615;28;20029;-72
2021/05/12 05:18:23;;;;;;;34.50;22.48;;;12.00;99.90;;;;;;5073567;28;20040;-72
2021/05/12 05:20:49;;;;;;;37.53;24.92;;;12.10;99.90;;;;;;5073489;28;20039;-72
2021/05/12 05:23:15;;;;;;;40.50;26.58;;;12.10;99.90;;;;;;5073475;28;20054;-72
2021/05/12 05:25:40;;;;;;;39.13;24.75;;;12.10;99.90;;;;;;5074840;28;20052;-72
2021/05/12 05:28:06;;;;;;;35.13;23.75;;;12.00;99.90;;;;;;5073321;28;20021;-72
2021/05/12 05:30:31;;;;;;;43.30;28.10;;;12.00;99.90;;;;;;5073168;28;20380;-72
2021/05/12 05:33:01;;;;;;;42.58;26.98;;;12.10;99.90;;;;;;5074626;28;20107;-72
2021/05/12 05:35:27;;;;;;;46.08;29.13;;;12.00;99.90;;;;;;5074554;28;20032;-72
2021/05/12 05:37:52;;;;;;;43.75;28.13;;;12.10;99.90;;;;;;5074442;28;20028;-72
2021/05/12 05:40:18;;;;;;;42.38;27.10;;;12.10;99.90;;;;;;5074274;28;20116;-72
2021/05/12 05:42:44;;;;;;;48.60;29.08;;;12.20;99.90;;;;;;5074402;28;20078;-72
2021/05/12 05:45:10;;;;;;;44.65;27.45;;;12.10;99.90;;;;;;5074458;28;20021;-72
2021/05/12 05:47:35;;;;;;;41.60;26.98;;;12.10;99.90;;;;;;5074176;28;20025;-71
2021/05/12 05:50:02;;;;;;;40.05;27.10;;;12.10;99.90;;;;;;5072706;28;20038;-72
2021/05/12 05:52:28;;;;;;;39.13;25.25;;;12.20;99.90;;;;;;5073022;28;20030;-75
2021/05/12 05:54:54;;;;;;;43.30;28.10;;;12.10;99.90;;;;;;5072957;28;20123;-75
2021/05/12 05:57:19;;;;;;;35.13;24.15;;;12.10;99.90;;;;;;5074083;28;20107;-72
2021/05/12 05:59:45;;;;;;;35.80;24.20;;;12.10;99.90;;;;;;5074140;28;20108;-72
2021/05/12 06:02:10;;;;;;;37.35;25.08;;;12.10;99.90;;;;;;5074001;28;20036;-72
2021/05/12 06:04:36;;;;;;;33.05;23.65;;;12.10;99.90;;;;;;5074237;28;20087;-72
2021/05/12 06:07:02;;;;;;;34.00;22.98;;;12.10;99.90;;;;;;5074043;28;20416;-72
2021/05/12 06:09:28;;;;;;;34.97;24.13;;;12.10;99.90;;;;;;5073083;28;20582;-72
2021/05/12 06:11:53;;;;;;;35.13;24.13;;;12.00;99.90;;;;;;5073697;28;20129;-72
2021/05/12 06:14:20;;;;;;;33.22;22.48;;;12.10;99.90;;;;;;5072530;28;20028;-72
2021/05/12 06:16:46;;;;;;;30.77;21.35;;;12.00;99.90;;;;;;5073032;28;20530;-72
2021/05/12 06:19:12;;;;;;;37.45;24.17;;;12.00;99.90;;;;;;5072388;28;20068;-72
2021/05/12 06:21:38;;;;;;;32.45;21.85;;;12.10;99.90;;;;;;5071824;28;20052;-73
2021/05/12 06:24:03;;;;;;;33.80;23.50;;;12.00;99.90;;;;;;5070714;28;20483;-71
2021/05/12 06:26:29;;;;;;;27.52;21.30;;;12.00;99.90;;;;;;5071901;28;20028;-72
2021/05/12 06:28:54;;;;;;;32.75;23.13;;;12.10;99.90;;;;;;5072299;28;20017;-72
2021/05/12 06:31:20;;;;;;;31.05;22.35;;;12.10;99.90;;;;;;5071955;28;20031;-72
2021/05/12 06:33:47;;;;;;;33.08;23.73;;;12.10;99.90;;;;;;5073501;28;20082;-72
2021/05/12 06:36:16;;;;;;;29.50;21.23;;;12.00;99.90;;;;;;5073409;28;20023;-72
2021/05/12 06:38:42;;;;;;;30.08;21.52;;;11.90;99.90;;;;;;5073270;28;20104;-72
2021/05/12 06:41:08;;;;;;;32.33;23.00;;;12.10;99.90;;;;;;5072199;28;20131;-72
2021/05/12 06:43:33;;;;;;;34.30;23.63;;;12.10;99.90;;;;;;5072650;28;20559;-73
2021/05/12 06:45:59;;;;;;;34.75;25.15;;;12.00;99.90;;;;;;5073157;28;20020;-73
2021/05/12 06:48:25;;;;;;;34.03;21.95;;;12.00;99.90;;;;;;5071729;28;20032;-72
2021/05/12 06:50:50;;;;;;;33.20;22.88;;;11.90;99.90;;;;;;5072654;28;20020;-72
2021/05/12 06:53:32;;;;;;;34.85;22.17;;;12.00;99.90;;;;;;5072957;28;20029;-72
2021/05/12 06:55:58;;;;;;;29.08;21.50;;;12.00;99.90;;;;;;5072934;28;20176;-72
2021/05/12 06:58:24;;;;;;;30.60;21.88;;;12.00;99.90;;;;;;5066925;28;20492;-72
2021/05/12 07:00:53;;;;;;;31.05;23.05;;;12.00;99.90;;;;;;5065758;28;20032;-72
2021/05/12 07:03:22;;;;;;;33.38;23.65;;;11.90;99.90;;;;;;5066472;28;20082;-72
2021/05/12 07:05:54;;;;;;;31.92;22.15;;;11.80;99.90;;;;;;5066191;28;20070;-72
2021/05/12 07:08:22;;;;;;;34.40;24.00;;;11.80;99.90;;;;;;5072470;28;20013;-72
2021/05/12 07:10:49;;;;;;;32.90;23.77;;;11.90;99.90;;;;;;5069470;28;20052;-72
2021/05/12 07:13:15;;;;;;;34.75;23.65;;;11.90;99.90;;;;;;5072637;28;20437;-72
2021/05/12 07:15:41;;;;;;;34.78;24.92;;;11.70;99.90;;;;;;5072492;28;20099;-72
2021/05/12 07:18:06;;;;;;;38.55;25.98;;;11.80;99.90;;;;;;5072455;28;20093;-73
2021/05/12 07:20:32;;;;;;;31.75;23.48;;;11.70;99.90;;;;;;5070716;28;20029;-72
2021/05/12 07:23:09;;;;;;;37.03;25.10;;;11.80;99.90;;;;;;5070303;28;20484;-72
2021/05/12 07:25:36;;;;;;;36.03;25.92;;;11.80;99.90;;;;;;5071833;28;20016;-72
2021/05/12 07:28:02;;;;;;;33.17;24.33;;;11.80;99.90;;;;;;5070918;28;20033;-72
2021/05/12 07:30:28;;;;;;;33.88;25.05;;;11.80;99.90;;;;;;5070487;28;20026;-71
2021/05/12 07:32:54;;;;;;;34.25;26.05;;;11.80;99.90;;;;;;5071222;28;20028;-72
2021/05/12 07:35:20;;;;;;;32.03;24.40;;;11.70;99.90;;;;;;5070942;28;20024;-72
2021/05/12 07:37:46;;;;;;;34.10;26.63;;;11.70;99.90;;;;;;5069518;28;20078;-72
2021/05/12 07:40:12;;;;;;;37.58;27.13;;;11.80;99.90;;;;;;5071161;28;20078;-72
2021/05/12 07:42:40;;;;;;;39.92;27.90;;;11.70;99.90;;;;;;5069594;28;20090;-73
2021/05/12 07:45:07;;;;;;;37.70;27.88;;;11.70;99.90;;;;;;5071091;28;20025;-72
2021/05/12 07:47:33;;;;;;;40.28;29.13;;;11.70;99.90;;;;;;5071317;28;20046;-72
2021/05/12 07:49:58;;;;;;;39.95;28.88;;;11.60;99.90;;;;;;5071584;28;20464;-72
2021/05/12 07:52:24;;;;;;;37.42;26.92;;;11.70;99.90;;;;;;5071311;28;20074;-72
2021/05/12 07:54:49;;;;;;;38.15;28.73;;;11.70;99.90;;;;;;5071410;28;20391;-71
2021/05/12 07:57:15;;;;;;;39.70;29.63;;;11.80;99.90;;;;;;5070816;28;20033;-71
2021/05/12 07:59:40;;;;;;;40.85;29.17;;;11.80;99.90;;;;;;5070987;28;20036;-71
2021/05/12 08:02:06;;;;;;;41.15;29.77;;;11.80;99.90;;;;;;5071184;28;20105;-71
2021/05/12 08:04:33;;;;;;;42.38;30.38;;;11.90;99.90;;;;;;5071031;28;20021;-71
2021/05/12 08:06:59;;;;;;;44.90;28.75;;;11.90;99.90;;;;;;5071173;28;20032;-72
2021/05/12 08:09:25;;;;;;;39.50;28.55;;;11.90;99.90;;;;;;5071013;28;20146;-72
2021/05/12 08:11:51;;;;;;;39.42;29.17;;;12.00;99.90;;;;;;5069680;28;20036;-72
2021/05/12 08:14:17;;;;;;;44.03;30.92;;;12.10;99.90;;;;;;5070925;28;20024;-72
2021/05/12 08:16:43;;;;;;;40.20;29.88;;;12.00;99.90;;;;;;5069601;28;20102;-72
2021/05/12 08:19:09;;;;;;;41.33;30.63;;;11.90;99.90;;;;;;5070695;28;20384;-72
2021/05/12 08:21:35;;;;;;;39.25;28.88;;;12.00;99.90;;;;;;5070881;28;20025;-72
2021/05/12 08:24:01;;;;;;;43.97;30.95;;;12.00;99.90;;;;;;5070874;28;20027;-72
2021/05/12 08:26:26;;;;;;;49.97;33.58;;;12.00;99.90;;;;;;5071081;28;20433;-72
2021/05/12 08:28:53;;;;;;;45.75;31.45;;;11.90;99.90;;;;;;5071225;28;20021;-72
2021/05/12 08:31:19;;;;;;;41.08;29.52;;;11.80;99.90;;;;;;5070355;28;20136;-72
2021/05/12 08:33:45;;;;;;;40.95;30.75;;;12.00;99.90;;;;;;5069836;28;20543;-72
2021/05/12 08:36:10;;;;;;;48.13;34.45;;;12.00;99.90;;;;;;5070148;28;20029;-72
2021/05/12 08:38:37;;;;;;;46.30;31.35;;;12.10;99.90;;;;;;5071094;28;20029;-72
2021/05/12 08:41:03;;;;;;;50.92;35.22;;;12.00;99.90;;;;;;5071200;28;20024;-72
2021/05/12 08:43:30;;;;;;;49.78;33.50;;;12.10;99.90;;;;;;5070168;28;20533;-72
2021/05/12 08:45:57;;;;;;;44.78;31.17;;;12.00;99.90;;;;;;5071305;28;20052;-72
2021/05/12 08:48:24;;;;;;;43.05;30.15;;;12.00;99.90;;;;;;5071048;28;20025;-72
2021/05/12 08:50:51;;;;;;;43.60;32.25;;;12.10;99.90;;;;;;5070660;28;20025;-72
2021/05/12 08:53:17;;;;;;;41.60;29.38;;;12.00;99.90;;;;;;5073405;28;20450;-72
2021/05/12 08:55:42;;;;;;;52.15;34.47;;;12.00;99.90;;;;;;5074930;28;20103;-72
2021/05/12 08:58:08;;;;;;;55.60;38.38;;;11.80;99.90;;;;;;5074791;28;20503;-72
2021/05/12 09:00:34;;;;;;;49.85;33.50;;;11.90;99.90;;;;;;5074210;28;20107;-71
2021/05/12 09:03:01;;;;;;;46.38;31.02;;;12.00;99.90;;;;;;5075026;28;20024;-72
2021/05/12 09:05:28;;;;;;;48.58;31.83;;;12.10;99.90;;;;;;5075160;28;20448;-72
2021/05/12 09:07:55;;;;;;;44.63;32.50;;;12.10;99.90;;;;;;5074736;28;20020;-72
2021/05/12 09:10:21;;;;;;;44.75;32.55;;;12.00;99.90;;;;;;5074832;28;20029;-72
2021/05/12 09:12:47;;;;;;;49.95;35.08;;;12.00;99.90;;;;;;5074410;28;20097;-72
2021/05/12 09:15:17;;;;;;;53.85;35.95;;;12.10;99.90;;;;;;5074877;28;20036;-71
2021/05/12 09:17:45;;;;;;;48.50;34.35;;;12.10;99.90;;;;;;5074187;28;20399;-72
2021/05/12 09:20:20;;;;;;;44.75;31.35;;;12.20;99.90;;;;;;5074225;28;20052;-72
2021/05/12 09:22:46;;;;;;;55.05;36.55;;;12.20;99.90;;;;;;5074194;28;20025;-72
2021/05/12 09:25:19;;;;;;;58.13;38.80;;;12.00;99.90;;;;;;5074572;28;20594;-72
2021/05/12 09:27:49;;;;;;;57.20;36.53;;;12.10;99.90;;;;;;5074094;28;20024;-72
2021/05/12 09:30:22;;;;;;;54.15;34.80;;;12.10;99.90;;;;;;5074112;28;20040;-72
2021/05/12 09:32:48;;;;;;;55.72;36.83;;;12.10;99.90;;;;;;5073794;28;20025;-72
2021/05/12 09:35:14;;;;;;;52.50;37.97;;;12.10;99.90;;;;;;5074624;28;20031;-72
2021/05/12 09:37:45;;;;;;;50.72;32.65;;;12.30;99.90;;;;;;5074561;28;20113;-72
2021/05/12 09:40:19;;;;;;;51.50;34.33;;;12.10;99.90;;;;;;5073876;28;20070;-72
2021/05/12 09:42:54;;;;;;;56.50;35.78;;;12.00;99.90;;;;;;5072715;28;20381;-72
2021/05/12 09:45:24;;;;;;;44.90;31.93;;;12.10;99.90;;;;;;5074399;28;20012;-72
2021/05/12 09:48:01;;;;;;;45.83;32.85;;;12.10;99.90;;;;;;5073363;28;20028;-72
2021/05/12 09:50:33;;;;;;;51.78;35.22;;;12.20;99.90;;;;;;5073541;28;20028;-72
2021/05/12 09:53:00;;;;;;;47.70;32.83;;;12.30;99.90;;;;;;5060971;28;20021;-72
2021/05/12 09:55:47;;;;;;;49.25;32.53;;;12.30;99.90;;;;;;5073639;28;20028;-72
2021/05/12 09:58:15;;;;;;;40.75;30.40;;;12.40;99.90;;;;;;5073988;28;20090;-73
2021/05/12 10:00:42;;;;;;;44.90;30.70;;;12.30;99.90;;;;;;5073462;28;20040;-73
2021/05/12 10:03:10;;;;;;;51.78;34.15;;;12.30;99.90;;;;;;5071991;28;20108;-73
2021/05/12 10:05:54;;;;;;;50.13;33.40;;;12.30;99.90;;;;;;5073262;28;20029;-73
2021/05/12 10:08:23;;;;;;;47.17;33.10;;;12.40;99.90;;;;;;5074110;28;20463;-73
2021/05/12 10:10:56;;;;;;;46.58;31.83;;;12.30;99.90;;;;;;5060206;28;20384;-73
2021/05/12 10:13:23;;;;;;;57.00;36.63;;;12.30;99.90;;;;;;5074133;28;20025;-73
2021/05/12 10:15:49;;;;;;;46.53;31.85;;;12.30;99.90;;;;;;5072250;28;20028;-73
2021/05/12 10:18:15;;;;;;;49.05;33.88;;;12.30;99.90;;;;;;5073226;28;20036;-73
2021/05/12 10:20:40;;;;;;;46.55;32.85;;;12.30;99.90;;;;;;5073714;28;20024;-73
2021/05/12 10:23:06;;;;;;;49.70;34.17;;;12.30;99.90;;;;;;5073807;28;20028;-72
2021/05/12 10:25:33;;;;;;;51.40;35.08;;;12.30;99.90;;;;;;5072136;28;20049;-73
2021/05/12 10:28:00;;;;;;;49.97;33.97;;;12.30;99.90;;;;;;5073390;28;20050;-73
2021/05/12 10:30:27;;;;;;;45.15;31.60;;;12.30;99.90;;;;;;5072051;28;20035;-73
2021/05/12 10:32:54;;;;;;;50.65;35.35;;;12.30;99.90;;;;;;5071509;28;20092;-73
2021/05/12 10:35:34;;;;;;;47.67;34.15;;;12.40;99.90;;;;;;5073179;28;20019;-73
2021/05/12 10:38:02;;;;;;;47.80;33.47;;;12.50;99.90;;;;;;5072764;28;20032;-73
2021/05/12 10:40:34;;;;;;;42.42;31.83;;;12.40;99.90;;;;;;5073083;28;20095;-73
2021/05/12 10:43:30;;;;;;;45.63;32.22;;;12.50;99.90;;;;;;5073436;28;20016;-73
2021/05/12 10:48:47;;;;;;;46.17;33.58;;;12.50;99.90;;;;;;5073619;28;20032;-73
2021/05/12 10:51:26;;;;;;;54.85;37.00;;;12.40;99.90;;;;;;5069970;28;20383;-73
2021/05/12 10:53:54;;;;;;;48.17;34.08;;;12.50;99.90;;;;;;5069564;28;20562;-73
2021/05/12 10:56:37;;;;;;;44.67;32.75;;;12.40;99.90;;;;;;5073099;28;20020;-73
2021/05/12 10:59:13;;;;;;;38.83;30.33;;;12.50;99.90;;;;;;5072493;28;20379;-72
2021/05/12 11:01:41;;;;;;;34.50;26.27;;;12.50;99.90;;;;;;5072565;28;20052;-73
2021/05/12 11:04:09;;;;;;;38.60;29.65;;;12.50;99.90;;;;;;5072642;28;20543;-73
2021/05/12 11:06:34;;;;;;;38.70;28.25;;;12.70;99.90;;;;;;5072900;28;20025;-73
2021/05/12 11:09:11;;;;;;;42.97;31.98;;;12.80;99.90;;;;;;5072317;28;20066;-73
2021/05/12 11:11:48;;;;;;;46.67;29.85;;;12.70;99.90;;;;;;5072840;28;20091;-73
2021/05/12 11:14:34;;;;;;;34.70;26.48;;;12.70;99.90;;;;;;5088289;28;20017;-73
2021/05/12 11:17:10;;;;;;;38.03;28.15;;;12.80;99.90;;;;;;5072372;28;20036;-73
2021/05/12 11:25:32;;;;;;;24.42;19.30;;;13.20;99.90;;;;;;5072956;28;20467;-73
2021/05/12 11:33:33;;;;;;;29.10;21.33;;;13.20;99.90;;;;;;5071535;28;20094;-73
2021/05/12 11:36:15;;;;;;;27.17;22.05;;;13.20;99.90;;;;;;5071957;28;20031;-73
2021/05/12 11:38:42;;;;;;;23.63;19.65;;;13.10;99.90;;;;;;5071838;28;20016;-72
2021/05/12 11:41:16;;;;;;;27.15;20.88;;;13.10;99.90;;;;;;5087962;28;20044;-73
2021/05/12 11:43:57;;;;;;;23.90;19.88;;;13.00;99.90;;;;;;5070968;28;20033;-73
2021/05/12 11:46:28;;;;;;;26.60;21.17;;;13.10;99.90;;;;;;5072357;28;20027;-72
2021/05/12 11:48:55;;;;;;;28.67;22.48;;;12.80;99.90;;;;;;5071365;28;20042;-73
2021/05/12 11:51:29;;;;;;;29.10;23.08;;;12.80;99.90;;;;;;5078455;22;20040;-74
2021/05/12 11:53:56;;;;;;;27.70;21.65;;;12.90;99.90;;;;;;5033946;28;20502;-74
2021/05/12 11:56:24;;;;;;;22.10;17.02;;;12.80;99.90;;;;;;5051985;28;20472;-74
2021/05/12 11:58:55;;;;;;;24.38;17.85;;;13.00;99.90;;;;;;5050824;28;20042;-74
2021/05/12 12:01:21;;;;;;;19.88;17.52;;;13.10;99.90;;;;;;5051744;28;20024;-74
2021/05/12 12:04:25;;;;;;;16.75;14.25;;;13.20;99.90;;;;;;5033868;28;20025;-74
2021/05/12 12:06:47;;;;;;;17.80;14.70;;;13.10;99.90;;;;;;5044558;28;20475;-74
2021/05/12 12:09:15;;;;;;;16.80;13.50;;;13.00;99.90;;;;;;5038452;28;20096;-74
2021/05/12 12:11:42;;;;;;;18.58;14.63;;;13.00;99.90;;;;;;5033803;28;20031;-74
2021/05/12 12:14:08;;;;;;;18.52;13.98;;;13.10;99.90;;;;;;5033839;28;20086;-73
2021/05/12 12:16:39;;;;;;;17.75;13.13;;;13.10;99.90;;;;;;5051638;28;20078;-74
2021/05/12 12:19:16;;;;;;;19.33;14.52;;;13.00;99.90;;;;;;5051975;28;20384;-73
2021/05/12 12:21:51;;;;;;;17.08;13.23;;;12.90;99.90;;;;;;5051439;28;20034;-73
2021/05/12 12:24:20;;;;;;;18.35;14.27;;;13.00;99.90;;;;;;5051580;28;20017;-73
2021/05/12 12:26:52;;;;;;;20.02;15.20;;;13.00;99.90;;;;;;5032803;28;20476;-73
2021/05/12 12:29:20;;;;;;;22.00;15.63;;;12.80;99.90;;;;;;5051466;28;20075;-73
2021/05/12 12:31:51;;;;;;;26.13;16.05;;;12.60;99.90;;;;;;5033629;28;20481;-73
2021/05/12 12:34:31;;;;;;;19.35;15.23;;;12.70;99.90;;;;;;5051665;28;20488;-73
2021/05/12 12:36:57;;;;;;;20.13;14.70;;;12.70;99.90;;;;;;5039580;28;20432;-73
2021/05/12 12:39:48;;;;;;;20.98;15.25;;;12.80;99.90;;;;;;5033364;28;20021;-73
2021/05/12 12:42:18;;;;;;;17.90;12.32;;;12.80;99.90;;;;;;5051474;28;20025;-73
2021/05/12 12:44:45;;;;;;;17.10;10.80;;;12.60;99.90;;;;;;5051396;28;20103;-73